Flugplatz Falkenberg-Lönnewitz

Für EDUF sind keine METAR/TAF Berichte vorhanden.
Es werden die Flugwettermeldungen vom Flugplatz Holzdorf Airport in 24 km Entfernung angezeigt.

Bericht für ETSH

vom 22.03. um 21:20 UTC

Wind 2 kt aus 100°

Sichtweite 4500 m

feuchter Dunst

Temperatur 8.0°C

Taupunkt 8.0°C

Luftfeuchtigkeit 100%

Luftdruck 1029 hPa

ETSH 222120Z 10002KT 4500 BR 08/08 Q1029 GRN
Keine Prognose (TAF) verfügbar.
Impressum